Time;durP1;ratioP1;P1;durP2;ratioP2;P2;SDS_P1;SDS_P2;PMS_P1;PMS_P2;Temp;Humidity;BMP_temperature;BMP_pressure;BME280_temperature;BME280_humidity;BME280_pressure;Samples;Min_cycle;Max_cycle;Signal;HPM_P1;HPM_P2
2021/06/22 00:02:09;;;;;;;;;10.50;8.50;;;;;26.90;45.56;100600.25;5012433;27;50951;-61
2021/06/22 00:04:34;;;;;;;;;7.25;7.25;;;;;26.88;45.63;100606.06;5012917;27;50912;-60
2021/06/22 00:07:00;;;;;;;;;8.50;7.75;;;;;26.88;45.74;100608.81;4978966;28;52536;-60
2021/06/22 00:09:25;;;;;;;;;7.00;7.00;;;;;26.88;45.58;100606.06;5013875;28;58071;-60
2021/06/22 00:11:51;;;;;;;;;8.75;7.75;;;;;26.88;45.69;100605.22;5013266;28;54724;-60
2021/06/22 00:14:16;;;;;;;;;9.75;7.25;;;;;26.88;45.80;100599.66;5014460;27;65173;-64
2021/06/22 00:16:41;;;;;;;;;11.75;6.25;;;;;26.87;45.55;100607.16;4995987;28;52728;-60
2021/06/22 00:19:07;;;;;;;;;6.50;6.50;;;;;26.87;45.81;100606.31;5013560;27;51370;-59
2021/06/22 00:21:32;;;;;;;;;9.75;9.50;;;;;26.87;45.92;100611.88;4997315;28;51170;-59
2021/06/22 00:23:58;;;;;;;;;7.75;6.00;;;;;26.86;45.89;100605.50;5014629;27;56156;-60
2021/06/22 00:26:23;;;;;;;;;8.75;6.25;;;;;26.86;46.06;100610.22;5019180;28;51042;-60
2021/06/22 00:28:50;;;;;;;;;6.75;6.50;;;;;26.86;46.13;100610.22;5042306;27;50979;-60
2021/06/22 00:31:17;;;;;;;;;9.25;6.00;;;;;26.86;45.79;100610.22;5013900;28;51073;-59
2021/06/22 00:33:43;;;;;;;;;7.00;6.25;;;;;26.85;45.67;100608.53;5013743;28;51003;-59
2021/06/22 00:36:08;;;;;;;;;6.50;6.50;;;;;26.85;46.12;100608.53;5014640;27;51752;-60
2021/06/22 00:38:34;;;;;;;;;5.75;5.75;;;;;26.85;45.54;100602.97;5011477;28;51180;-61
2021/06/22 00:40:59;;;;;;;;;6.75;5.00;;;;;26.85;45.84;100609.38;5013545;28;51341;-60
2021/06/22 00:43:25;;;;;;;;;7.00;6.00;;;;;26.85;45.96;100611.31;5014112;28;51083;-61
2021/06/22 00:45:50;;;;;;;;;7.00;6.00;;;;;26.84;45.76;100607.72;5028252;28;68103;-60
2021/06/22 00:48:15;;;;;;;;;6.75;5.25;;;;;26.84;46.06;100629.94;4996169;28;51079;-60
2021/06/22 00:50:41;;;;;;;;;6.25;5.25;;;;;26.84;45.85;100627.16;5013761;28;55234;-60
2021/06/22 00:53:06;;;;;;;;;5.75;4.75;;;;;26.84;45.63;100623.56;5014803;27;51138;-60
2021/06/22 00:55:33;;;;;;;;;5.00;5.00;;;;;26.83;45.70;100614.38;5023258;27;51940;-59
2021/06/22 00:57:59;;;;;;;;;4.25;2.00;;;;;26.82;45.10;100615.50;5021579;28;51266;-60
2021/06/22 01:00:25;;;;;;;;;4.75;4.75;;;;;26.82;44.78;100614.66;4994832;28;50984;-60
2021/06/22 01:02:52;;;;;;;;;1.75;1.25;;;;;26.79;44.49;100621.59;5014395;27;52955;-60
2021/06/22 01:05:17;;;;;;;;;3.25;3.25;;;;;26.78;44.72;100625.44;5011566;28;52071;-59
2021/06/22 01:07:43;;;;;;;;;3.00;2.50;;;;;26.75;44.44;100624.06;5012132;28;50925;-59
2021/06/22 01:10:09;;;;;;;;;2.00;2.00;;;;;26.74;44.52;100618.78;5013671;28;51499;-60
2021/06/22 01:12:34;;;;;;;;;1.50;1.50;;;;;26.72;44.47;100619.03;5000310;27;51126;-60
2021/06/22 01:15:00;;;;;;;;;3.00;3.00;;;;;26.71;44.52;100622.09;5016542;28;51753;-60
2021/06/22 01:17:27;;;;;;;;;4.75;4.75;;;;;26.70;44.25;100623.22;5014440;28;51692;-59
2021/06/22 01:19:53;;;;;;;;;4.50;3.50;;;;;26.66;44.61;100620.13;5011490;28;51047;-60
2021/06/22 01:22:18;;;;;;;;;4.00;3.50;;;;;26.65;44.45;100620.38;5012389;28;51259;-60
2021/06/22 01:24:44;;;;;;;;;4.00;4.00;;;;;26.64;44.33;100615.94;5011661;28;52056;-60
2021/06/22 01:27:09;;;;;;;;;2.25;2.25;;;;;26.62;44.14;100620.94;5012269;27;51082;-60
2021/06/22 01:29:35;;;;;;;;;3.75;2.25;;;;;26.61;44.50;100624.81;5055747;27;51067;-60
2021/06/22 01:32:00;;;;;;;;;4.75;4.75;;;;;26.59;44.45;100613.97;5028812;28;51345;-61
2021/06/22 01:34:27;;;;;;;;;2.00;2.00;;;;;26.57;44.13;100605.06;5012924;28;52350;-60
2021/06/22 01:36:54;;;;;;;;;2.00;2.00;;;;;26.56;44.28;100606.16;5018151;28;51106;-60
2021/06/22 01:39:19;;;;;;;;;4.00;2.00;;;;;26.55;44.46;100600.88;5024731;27;50631;-60
2021/06/22 01:41:44;;;;;;;;;2.00;2.00;;;;;26.54;44.40;100596.44;5014396;28;50956;-60
2021/06/22 01:44:10;;;;;;;;;2.75;2.00;;;;;26.53;44.43;100594.75;5031260;27;51870;-61
2021/06/22 01:46:35;;;;;;;;;2.25;2.25;;;;;26.50;44.15;100593.38;5016122;28;51153;-61
2021/06/22 01:49:01;;;;;;;;;2.75;2.75;;;;;26.50;44.78;100581.41;5011769;28;51069;-60
2021/06/22 01:51:26;;;;;;;;;3.00;2.25;;;;;26.48;44.39;100592.81;5014125;28;51111;-61
2021/06/22 01:53:52;;;;;;;;;2.75;2.25;;;;;26.46;44.63;100595.00;5017140;27;71783;-60
2021/06/22 01:56:19;;;;;;;;;2.00;2.00;;;;;26.45;44.56;100596.09;5019284;28;50949;-61
2021/06/22 01:58:44;;;;;;;;;2.50;2.25;;;;;26.44;44.36;100597.19;5021194;28;50995;-60
2021/06/22 02:01:10;;;;;;;;;2.25;2.25;;;;;26.42;44.63;100593.88;5014172;28;51051;-60
2021/06/22 02:03:35;;;;;;;;;2.25;2.25;;;;;26.40;44.50;100585.81;5013010;28;50943;-60
2021/06/22 02:06:00;;;;;;;;;2.00;2.00;;;;;26.40;44.64;100594.13;5013597;28;63291;-61
2021/06/22 02:08:26;;;;;;;;;2.00;2.00;;;;;26.39;44.61;100594.41;5013902;28;67974;-60
2021/06/22 02:10:51;;;;;;;;;2.75;2.75;;;;;26.37;44.54;100594.69;5013448;28;52512;-60
2021/06/22 02:13:17;;;;;;;;;4.25;4.00;;;;;26.35;44.87;100594.06;5013382;28;50925;-60
2021/06/22 02:15:42;;;;;;;;;4.50;4.00;;;;;26.35;44.80;100605.16;5013929;28;50964;-60
2021/06/22 02:18:08;;;;;;;;;4.25;2.25;;;;;26.34;44.84;100620.16;5013497;27;51339;-60
2021/06/22 02:20:36;;;;;;;;;3.50;3.50;;;;;26.32;44.83;100605.72;5016584;28;50877;-61
2021/06/22 02:23:02;;;;;;;;;2.50;2.00;;;;;26.32;45.02;100607.66;5015080;27;51914;-60
2021/06/22 02:25:27;;;;;;;;;4.75;4.25;;;;;26.30;45.18;100613.47;5011813;28;51157;-60
2021/06/22 02:28:06;;;;;;;;;3.75;3.00;;;;;26.29;45.15;100602.66;5030711;27;58739;-60
2021/06/22 02:30:32;;;;;;;;;3.50;3.25;;;;;26.28;44.85;100612.91;5016098;28;51193;-60
2021/06/22 02:32:57;;;;;;;;;3.00;3.00;;;;;26.27;44.89;100596.53;5014581;28;51934;-61
2021/06/22 02:35:23;;;;;;;;;4.00;4.00;;;;;26.26;45.16;100600.38;5017974;28;51001;-60
2021/06/22 02:37:51;;;;;;;;;3.00;2.50;;;;;26.25;44.89;100605.09;5012286;28;51134;-61
2021/06/22 02:40:17;;;;;;;;;3.25;3.25;;;;;26.24;45.14;100597.88;5011417;28;51028;-61
2021/06/22 02:42:42;;;;;;;;;5.00;4.00;;;;;26.23;45.11;100601.75;5015306;28;51842;-61
2021/06/22 02:45:08;;;;;;;;;4.25;4.25;;;;;26.23;45.08;100603.69;5016142;28;65869;-61
2021/06/22 02:47:33;;;;;;;;;4.00;4.00;;;;;26.22;45.15;100600.09;5018753;28;51226;-60
2021/06/22 02:49:58;;;;;;;;;6.50;6.00;;;;;26.21;45.37;100603.97;5017123;28;60460;-60
2021/06/22 02:52:24;;;;;;;;;6.75;5.50;;;;;26.18;45.10;100602.56;5013376;28;68933;-60
2021/06/22 02:54:49;;;;;;;;;5.25;4.00;;;;;26.19;45.10;100608.97;5015110;28;67875;-61
2021/06/22 02:57:14;;;;;;;;;5.25;5.25;;;;;26.17;45.39;100611.16;5047590;27;51068;-60
2021/06/22 02:59:40;;;;;;;;;5.50;4.50;;;;;26.16;45.51;100612.28;5021278;27;51381;-61
2021/06/22 03:02:06;;;;;;;;;5.50;5.00;;;;;26.16;45.60;100609.50;5032835;28;50820;-60
2021/06/22 03:04:31;;;;;;;;;5.00;3.50;;;;;26.15;45.62;100613.34;5017240;28;51013;-60
2021/06/22 03:06:56;;;;;;;;;4.50;4.00;;;;;26.15;45.47;100616.97;5016374;28;51192;-60
2021/06/22 03:09:22;;;;;;;;;6.75;6.75;;;;;26.14;45.72;100608.91;5015042;27;51156;-61
2021/06/22 03:11:48;;;;;;;;;7.00;6.25;;;;;26.14;45.94;100618.06;5016086;28;50963;-60
2021/06/22 03:14:14;;;;;;;;;7.00;6.00;;;;;26.13;45.63;100616.41;5014065;27;51222;-61
2021/06/22 03:16:39;;;;;;;;;9.50;6.50;;;;;26.13;45.90;100607.22;5016671;28;51224;-60
2021/06/22 03:19:05;;;;;;;;;7.50;7.00;;;;;26.11;45.81;100601.94;5015681;28;51216;-61
2021/06/22 03:21:30;;;;;;;;;8.50;6.00;;;;;26.11;45.85;100606.66;5014012;28;54641;-61
2021/06/22 03:23:56;;;;;;;;;8.00;6.00;;;;;26.10;45.85;100610.53;5015145;28;51121;-60
2021/06/22 03:26:21;;;;;;;;;6.00;6.00;;;;;26.11;45.99;100612.22;5014784;28;54500;-59
2021/06/22 03:28:46;;;;;;;;;5.00;5.00;;;;;26.07;45.88;100600.81;5034594;27;52604;-59
2021/06/22 03:31:12;;;;;;;;;6.00;6.00;;;;;26.07;46.03;100599.97;5015999;28;53710;-60
2021/06/22 03:33:37;;;;;;;;;7.75;7.00;;;;;26.07;45.95;100603.59;5017406;28;51074;-59
2021/06/22 03:36:03;;;;;;;;;5.50;4.25;;;;;26.07;46.09;100614.69;5018143;27;50756;-59
2021/06/22 03:38:29;;;;;;;;;7.75;6.00;;;;;26.06;46.14;100624.13;5014937;28;50956;-60
2021/06/22 03:40:54;;;;;;;;;7.25;5.25;;;;;26.05;45.98;100610.50;5014631;28;51005;-60
2021/06/22 03:43:21;;;;;;;;;5.50;4.75;;;;;26.05;46.07;100632.69;5015959;28;65995;-59
2021/06/22 03:45:46;;;;;;;;;6.25;4.75;;;;;26.03;46.16;100630.19;5015765;27;51079;-59
2021/06/22 03:48:12;;;;;;;;;9.00;6.75;;;;;26.03;46.22;100623.81;5013900;28;50971;-60
2021/06/22 03:50:38;;;;;;;;;5.50;5.50;;;;;26.02;46.36;100622.97;4999012;27;71817;-60
2021/06/22 03:53:03;;;;;;;;;5.50;5.50;;;;;26.01;46.38;100607.41;5017668;28;51141;-60
2021/06/22 03:55:29;;;;;;;;;8.00;7.00;;;;;26.01;46.16;100621.28;5023375;28;50927;-60
2021/06/22 03:57:56;;;;;;;;;5.50;4.25;;;;;26.00;46.31;100630.72;5011089;28;51018;-60
2021/06/22 04:00:21;;;;;;;;;5.75;5.75;;;;;26.00;46.25;100632.66;5015632;27;50940;-60
2021/06/22 04:02:47;;;;;;;;;4.25;4.25;;;;;26.00;46.35;100638.22;5015635;28;51042;-60
2021/06/22 04:05:13;;;;;;;;;8.00;4.50;;;;;25.98;46.31;100637.66;5026206;28;51067;-60
2021/06/22 04:07:38;;;;;;;;;5.50;5.00;;;;;25.97;46.31;100642.38;5030651;28;50968;-61
2021/06/22 04:10:04;;;;;;;;;4.75;4.75;;;;;25.97;46.33;100647.09;5016687;28;69986;-60
2021/06/22 04:12:29;;;;;;;;;4.00;4.00;;;;;25.97;46.52;100649.84;5016067;28;51143;-59
2021/06/22 04:14:55;;;;;;;;;4.00;4.00;;;;;25.96;46.38;100650.97;5014969;28;51040;-60
2021/06/22 04:17:20;;;;;;;;;5.25;5.25;;;;;25.94;46.25;100648.41;5012778;27;57475;-59
2021/06/22 04:19:46;;;;;;;;;4.50;4.50;;;;;25.95;46.25;100654.81;5013666;28;68166;-59
2021/06/22 04:22:11;;;;;;;;;5.25;4.00;;;;;25.93;46.32;100662.56;5015789;28;66507;-59
2021/06/22 04:24:36;;;;;;;;;4.25;4.00;;;;;25.92;46.36;100658.13;5017796;28;64021;-60
2021/06/22 04:27:02;;;;;;;;;6.00;5.75;;;;;25.92;46.17;100660.91;5029602;27;57406;-59
2021/06/22 04:29:27;;;;;;;;;5.00;3.00;;;;;25.91;46.25;100660.06;5024247;28;51571;-59
2021/06/22 04:31:53;;;;;;;;;4.00;3.25;;;;;25.90;46.16;100666.72;5014510;27;51154;-60
2021/06/22 04:34:19;;;;;;;;;6.25;5.00;;;;;25.89;46.31;100663.09;5027642;28;51066;-60
2021/06/22 04:36:44;;;;;;;;;4.00;4.00;;;;;25.89;46.29;100653.94;5013320;28;51066;-59
2021/06/22 04:39:10;;;;;;;;;4.00;3.75;;;;;25.88;46.37;100657.81;5014744;28;52098;-60
2021/06/22 04:41:35;;;;;;;;;3.00;3.00;;;;;25.87;46.47;100665.31;5017467;27;50980;-60
2021/06/22 04:44:00;;;;;;;;;4.25;3.00;;;;;25.88;46.16;100668.91;5015131;28;51013;-60
2021/06/22 04:46:26;;;;;;;;;5.00;3.50;;;;;25.87;46.19;100670.03;5014200;28;60254;-60
2021/06/22 04:48:52;;;;;;;;;3.00;3.00;;;;;25.85;46.45;100673.06;5014182;27;51864;-59
2021/06/22 04:51:17;;;;;;;;;5.00;3.00;;;;;25.85;46.29;100663.91;5014182;28;51390;-60
2021/06/22 04:53:42;;;;;;;;;3.00;3.00;;;;;25.84;46.33;100665.81;5016408;28;59843;-59
2021/06/22 04:56:08;;;;;;;;;5.25;4.50;;;;;25.83;46.32;100669.69;5015532;28;50898;-60
2021/06/22 04:58:34;;;;;;;;;4.50;3.50;;;;;25.85;46.31;100677.78;5014328;28;70511;-59
2021/06/22 05:01:02;;;;;;;;;6.25;4.00;;;;;25.82;46.12;100668.03;4995970;28;51178;-60
2021/06/22 05:03:27;;;;;;;;;4.50;3.50;;;;;25.82;46.41;100673.56;5012699;28;50996;-59
2021/06/22 05:05:52;;;;;;;;;7.00;4.50;;;;;25.81;46.22;100671.06;5013037;28;56084;-60
2021/06/22 05:08:18;;;;;;;;;8.00;6.00;;;;;25.81;46.51;100674.66;5016196;28;64295;-59
2021/06/22 05:10:43;;;;;;;;;6.00;6.00;;;;;25.81;46.42;100666.34;5017134;28;51121;-60
2021/06/22 05:13:08;;;;;;;;;6.50;6.00;;;;;25.81;46.49;100668.28;5030980;27;50842;-59
2021/06/22 05:15:34;;;;;;;;;4.00;4.00;;;;;25.80;46.45;100672.16;5022056;28;51083;-60
2021/06/22 05:17:59;;;;;;;;;4.50;4.00;;;;;25.80;46.55;100670.22;5017216;28;61403;-59
2021/06/22 05:20:25;;;;;;;;;6.00;5.25;;;;;25.79;46.41;100668.56;5013398;28;71114;-59
2021/06/22 05:22:50;;;;;;;;;6.00;5.00;;;;;25.78;46.34;100666.88;5017063;28;50868;-59
2021/06/22 05:25:15;;;;;;;;;5.50;5.00;;;;;25.77;46.62;100669.91;5014002;28;59732;-59
2021/06/22 05:27:41;;;;;;;;;9.00;5.00;;;;;25.76;46.65;100674.63;5021286;27;51045;-59
2021/06/22 05:30:07;;;;;;;;;5.50;5.50;;;;;25.77;46.57;100681.03;5017915;28;51091;-59
2021/06/22 05:32:32;;;;;;;;;3.00;3.00;;;;;25.76;46.60;100680.19;5022905;27;51099;-60
2021/06/22 05:34:58;;;;;;;;;5.75;5.75;;;;;25.75;46.84;100675.72;5013627;27;51425;-59
2021/06/22 05:37:24;;;;;;;;;4.75;4.75;;;;;25.76;46.66;100676.56;5018900;27;53757;-60
2021/06/22 05:39:49;;;;;;;;;6.00;6.00;;;;;25.75;46.82;100684.06;5011566;28;51659;-61
2021/06/22 05:42:15;;;;;;;;;6.75;6.75;;;;;25.75;46.92;100681.28;5015975;28;51086;-60
2021/06/22 05:44:40;;;;;;;;;8.50;8.25;;;;;25.72;47.08;100676.25;5013557;28;50936;-61
2021/06/22 05:47:06;;;;;;;;;9.00;8.75;;;;;25.69;46.97;100687.84;5014536;28;65879;-61
2021/06/22 05:49:31;;;;;;;;;9.00;8.75;;;;;25.66;47.39;100693.91;5009576;28;50971;-60
2021/06/22 05:51:57;;;;;;;;;8.00;7.00;;;;;25.61;47.39;100689.13;5015469;28;50984;-59
2021/06/22 05:54:22;;;;;;;;;9.00;9.00;;;;;25.59;47.21;100696.88;5013475;28;50975;-60
2021/06/22 05:56:47;;;;;;;;;9.25;8.75;;;;;25.54;47.58;100693.22;5028634;28;51047;-61
2021/06/22 05:59:13;;;;;;;;;8.25;7.75;;;;;25.50;47.65;100692.06;5017668;28;51080;-60
2021/06/22 06:01:38;;;;;;;;;10.25;9.75;;;;;25.48;47.66;100694.25;5010149;28;53041;-61
2021/06/22 06:04:04;;;;;;;;;9.00;8.75;;;;;25.46;48.36;100696.44;5014123;28;56470;-60
2021/06/22 06:06:29;;;;;;;;;8.50;8.50;;;;;25.47;48.14;100703.66;5023375;27;51765;-60
2021/06/22 06:08:55;;;;;;;;;10.00;10.00;;;;;25.47;48.14;100710.06;5013660;28;51190;-60
2021/06/22 06:11:20;;;;;;;;;11.25;9.50;;;;;25.47;48.14;100703.66;5013136;27;51083;-60
2021/06/22 06:13:46;;;;;;;;;10.00;10.00;;;;;25.46;48.37;100710.31;5019492;27;51165;-60
2021/06/22 06:16:11;;;;;;;;;9.25;9.25;;;;;25.44;48.28;100712.53;5041139;27;71484;-61
2021/06/22 06:18:36;;;;;;;;;9.00;9.00;;;;;25.43;48.37;100708.03;5018321;28;51059;-60
2021/06/22 06:21:02;;;;;;;;;13.00;9.25;;;;;25.42;48.39;100717.47;5021895;28;51614;-61
2021/06/22 06:23:31;;;;;;;;;11.50;8.75;;;;;25.40;48.29;100720.50;5044280;27;51086;-57
2021/06/22 06:25:57;;;;;;;;;10.75;8.25;;;;;25.40;48.62;100719.66;5056380;27;51039;-55
2021/06/22 06:28:26;;;;;;;;;8.50;8.00;;;;;25.41;48.35;100724.09;5045057;27;51164;-55
2021/06/22 06:30:52;;;;;;;;;9.50;8.50;;;;;25.42;48.31;100717.47;5040328;27;51196;-58
2021/06/22 06:33:17;;;;;;;;;10.25;7.00;;;;;25.43;48.65;100720.00;5015089;28;51169;-61
2021/06/22 06:35:43;;;;;;;;;6.50;6.50;;;;;25.45;48.42;100717.81;5016968;28;78204;-61
2021/06/22 06:38:08;;;;;;;;;8.25;7.00;;;;;25.46;48.34;100721.41;5016260;28;59694;-56
2021/06/22 06:40:35;;;;;;;;;8.50;7.00;;;;;25.47;48.42;100723.09;5014834;28;51107;-57
2021/06/22 06:43:01;;;;;;;;;9.50;8.75;;;;;25.48;48.33;100728.38;5012063;28;51010;-59
2021/06/22 06:45:26;;;;;;;;;9.50;9.25;;;;;25.47;48.42;100723.91;5013798;28;51953;-58
2021/06/22 06:47:51;;;;;;;;;10.00;9.75;;;;;25.47;48.52;100729.47;5013885;28;57275;-57
2021/06/22 06:50:17;;;;;;;;;11.25;10.75;;;;;25.49;48.49;100729.19;5015082;27;51143;-52
2021/06/22 06:52:43;;;;;;;;;14.25;11.00;;;;;25.46;48.49;100727.78;5016174;28;51021;-49
2021/06/22 06:55:27;;;;;;;;;12.25;11.50;;;;;25.44;48.33;100726.38;5014889;27;51012;-54
2021/06/22 06:57:56;;;;;;;;;15.00;15.00;;;;;25.41;48.33;100729.66;5009079;27;51206;-51
2021/06/22 07:00:22;;;;;;;;;14.00;13.50;;;;;25.38;48.63;100738.50;5045632;28;51457;-53
2021/06/22 07:02:48;;;;;;;;;15.00;12.25;;;;;25.35;48.53;100739.84;5016401;28;50960;-48
2021/06/22 07:05:13;;;;;;;;;14.00;13.00;;;;;25.32;48.47;100738.44;5015190;28;54344;-55
2021/06/22 07:07:38;;;;;;;;;15.00;13.25;;;;;25.31;48.23;100738.66;5014215;28;69801;-56
2021/06/22 07:10:04;;;;;;;;;14.25;12.50;;;;;25.27;48.43;100743.91;5014559;27;71826;-56
2021/06/22 07:12:30;;;;;;;;;13.00;13.00;;;;;25.24;48.73;100740.81;5013276;28;51205;-54
2021/06/22 07:14:55;;;;;;;;;16.00;12.00;;;;;25.22;48.53;100746.63;5013375;28;51659;-56
2021/06/22 07:17:20;;;;;;;;;17.50;15.50;;;;;25.20;48.61;100751.56;5012322;27;64083;-57
2021/06/22 07:19:46;;;;;;;;;14.50;13.75;;;;;25.17;48.42;100745.69;5013159;28;51223;-56
2021/06/22 07:22:12;;;;;;;;;12.75;11.25;;;;;25.13;48.86;100742.63;5011313;27;56319;-57
2021/06/22 07:24:37;;;;;;;;;15.75;15.25;;;;;25.11;48.91;100743.94;4995691;28;51814;-54
2021/06/22 07:27:03;;;;;;;;;15.25;14.75;;;;;25.05;48.95;100740.28;5028680;27;60852;-56
2021/06/22 07:29:28;;;;;;;;;19.00;15.00;;;;;25.02;49.06;100743.56;5027773;27;51231;-56
2021/06/22 07:31:53;;;;;;;;;15.75;14.25;;;;;24.98;48.91;100745.94;5017647;28;51007;-53
2021/06/22 07:34:19;;;;;;;;;15.25;13.25;;;;;24.96;49.02;100741.75;5023644;28;51163;-57
2021/06/22 07:36:45;;;;;;;;;14.00;12.75;;;;;24.92;49.47;100735.91;5026417;28;51062;-52
2021/06/22 07:39:10;;;;;;;;;15.25;13.25;;;;;24.91;49.19;100741.72;5013460;28;68683;-53
2021/06/22 07:41:36;;;;;;;;;11.00;11.00;;;;;24.89;49.58;100735.56;5012913;27;51377;-53
2021/06/22 07:44:01;;;;;;;;;13.00;13.00;;;;;24.85;49.74;100742.72;5012918;28;51198;-52
2021/06/22 07:46:26;;;;;;;;;13.00;12.50;;;;;24.82;49.92;100746.84;5034244;27;51059;-53
2021/06/22 07:48:52;;;;;;;;;12.50;12.00;;;;;24.80;50.10;100734.31;5015816;28;51516;-53
2021/06/22 07:51:17;;;;;;;;;14.25;12.75;;;;;24.77;49.82;100742.03;5013782;28;51602;-53
2021/06/22 07:53:43;;;;;;;;;15.50;13.75;;;;;24.76;49.85;100742.28;5012153;28;55213;-53
2021/06/22 07:56:08;;;;;;;;;16.00;13.00;;;;;24.74;50.14;100738.94;5012325;27;51173;-52
2021/06/22 07:58:33;;;;;;;;;16.75;12.25;;;;;24.70;49.61;100749.69;5013285;28;57005;-52
2021/06/22 08:00:59;;;;;;;;;12.25;11.00;;;;;24.68;49.59;100757.41;5015360;28;51442;-53
2021/06/22 08:03:27;;;;;;;;;13.00;12.00;;;;;24.67;49.75;100761.25;5017824;27;51863;-53
2021/06/22 08:05:52;;;;;;;;;15.00;13.00;;;;;24.65;49.70;100762.63;5014864;28;50897;-53
2021/06/22 08:08:18;;;;;;;;;15.75;15.25;;;;;24.61;49.57;100767.84;5014948;27;51249;-54
2021/06/22 08:10:48;;;;;;;;;15.25;15.25;;;;;24.58;49.83;100771.09;5014011;27;51223;-53
2021/06/22 08:13:13;;;;;;;;;16.25;15.50;;;;;24.54;49.97;100775.47;5016476;28;51883;-52
2021/06/22 08:15:39;;;;;;;;;20.50;17.75;;;;;24.52;50.00;100774.88;5044872;27;51166;-51
2021/06/22 08:18:07;;;;;;;;;19.00;16.75;;;;;24.50;50.02;100785.38;5013631;28;51681;-53
2021/06/22 08:20:33;;;;;;;;;22.75;20.00;;;;;24.47;50.13;100783.91;5016051;28;51310;-53
2021/06/22 08:22:59;;;;;;;;;23.25;20.75;;;;;24.45;50.41;100788.03;5014092;27;52845;-53
2021/06/22 08:25:26;;;;;;;;;19.75;18.75;;;;;24.46;50.68;100789.72;5012400;28;51129;-54
2021/06/22 08:27:51;;;;;;;;;28.00;23.75;;;;;24.44;50.54;100789.13;5015787;27;51414;-52
2021/06/22 08:30:18;;;;;;;;;18.50;16.75;;;;;24.43;50.32;100790.22;5016944;28;51089;-53
2021/06/22 08:32:44;;;;;;;;;19.25;17.25;;;;;24.42;50.27;100789.38;5013235;27;51537;-51
2021/06/22 08:35:10;;;;;;;;;21.25;19.50;;;;;24.43;50.53;100790.22;5012818;27;51453;-54
2021/06/22 08:37:35;;;;;;;;;15.75;14.25;;;;;24.41;51.05;100782.16;5014207;28;51319;-54
2021/06/22 08:40:01;;;;;;;;;19.75;16.00;;;;;24.42;50.43;100799.63;5014298;28;61707;-55
2021/06/22 08:42:26;;;;;;;;;23.25;19.00;;;;;24.42;50.82;100791.31;5015373;28;51992;-54
2021/06/22 08:44:52;;;;;;;;;18.25;17.75;;;;;24.40;50.94;100791.56;5011449;27;51006;-53
2021/06/22 08:47:22;;;;;;;;;22.00;18.75;;;;;24.40;51.15;100788.78;5011816;28;51221;-53
2021/06/22 08:49:48;;;;;;;;;24.50;24.00;;;;;24.40;51.07;100791.56;5015074;28;51117;-53
2021/06/22 08:52:13;;;;;;;;;26.50;20.50;;;;;24.38;51.22;100784.56;5009514;28;51185;-55
2021/06/22 08:54:38;;;;;;;;;18.25;16.50;;;;;24.38;51.18;100799.25;4999734;27;63773;-54
2021/06/22 08:57:04;;;;;;;;;18.75;18.50;;;;;24.37;50.62;100796.75;5016361;28;51475;-53
2021/06/22 08:59:29;;;;;;;;;18.75;18.75;;;;;24.36;50.58;100793.13;5018608;28;50958;-54
2021/06/22 09:01:55;;;;;;;;;21.50;20.50;;;;;24.36;50.54;100793.13;5020902;27;66794;-56
2021/06/22 09:04:21;;;;;;;;;17.75;16.00;;;;;24.35;51.10;100798.94;5020199;27;51118;-51
2021/06/22 09:06:46;;;;;;;;;22.25;19.50;;;;;24.34;51.11;100792.56;5013482;28;51096;-54
2021/06/22 09:09:12;;;;;;;;;21.00;16.25;;;;;24.31;51.28;100798.59;5012602;28;51100;-57
2021/06/22 09:11:37;;;;;;;;;20.00;17.75;;;;;24.31;51.10;100800.53;5012796;28;51168;-56
2021/06/22 09:14:06;;;;;;;;;18.25;15.25;;;;;24.29;50.63;100802.69;5011981;27;51261;-57
2021/06/22 09:16:32;;;;;;;;;18.00;14.00;;;;;24.29;51.40;100809.06;5016017;28;51491;-53
2021/06/22 09:19:02;;;;;;;;;19.25;16.75;;;;;24.28;51.45;100804.59;4996997;28;51071;-53
2021/06/22 09:21:28;;;;;;;;;19.00;18.25;;;;;24.28;51.11;100806.50;5011828;28;51250;-54
2021/06/22 09:23:54;;;;;;;;;16.75;15.00;;;;;24.29;50.69;100803.53;5011498;28;51110;-56
2021/06/22 09:26:24;;;;;;;;;21.00;19.00;;;;;24.31;51.12;100806.91;5012057;28;51313;-56
2021/06/22 09:28:50;;;;;;;;;16.75;15.75;;;;;24.31;51.25;100812.44;5023807;27;51062;-59
2021/06/22 09:31:17;;;;;;;;;17.00;16.50;;;;;24.32;51.51;100807.75;5011903;28;52981;-57
2021/06/22 09:33:48;;;;;;;;;15.75;15.75;;;;;24.32;51.44;100813.28;5014489;27;51051;-58
2021/06/22 09:36:25;;;;;;;;;14.25;11.50;;;;;24.34;51.48;100805.56;5011862;28;51275;-58
2021/06/22 09:39:07;;;;;;;;;14.25;13.25;;;;;24.36;51.30;100806.13;5011299;28;51077;-58
2021/06/22 09:41:40;;;;;;;;;13.75;13.25;;;;;24.37;51.18;100794.81;5010297;28;52780;-59
2021/06/22 09:44:34;;;;;;;;;11.00;10.50;;;;;24.41;50.98;100797.94;5013752;27;51347;-60
2021/06/22 09:47:01;;;;;;;;;13.75;11.50;;;;;24.44;51.08;100797.44;5010345;27;51320;-59
2021/06/22 09:49:31;;;;;;;;;11.25;10.75;;;;;24.45;51.23;100807.41;5014566;28;51931;-58
2021/06/22 09:52:00;;;;;;;;;10.25;10.00;;;;;24.48;51.39;100806.91;5013554;28;51897;-59
2021/06/22 09:54:25;;;;;;;;;11.75;11.75;;;;;24.48;51.61;100818.81;5012689;27;50942;-59
2021/06/22 09:57:04;;;;;;;;;11.75;11.00;;;;;24.51;51.22;100820.28;5013857;28;51737;-57
2021/06/22 09:59:32;;;;;;;;;12.50;11.50;;;;;24.54;51.26;100827.22;5013412;28;51117;-59
2021/06/22 10:02:10;;;;;;;;;14.75;11.75;;;;;24.54;51.45;100828.06;5012418;27;52333;-59
2021/06/22 10:04:36;;;;;;;;;14.75;10.50;;;;;24.56;51.51;100834.19;5014589;28;51719;-59
2021/06/22 10:07:01;;;;;;;;;10.00;10.00;;;;;24.58;51.10;100834.78;5022805;27;51133;-59
2021/06/22 10:09:33;;;;;;;;;12.25;9.50;;;;;24.60;51.29;100840.09;5019475;28;51177;-59
2021/06/22 10:12:04;;;;;;;;;12.50;10.75;;;;;24.61;51.29;100845.38;5006478;28;51850;-58
2021/06/22 10:14:37;;;;;;;;;11.00;11.00;;;;;24.61;51.13;100828.75;5011543;28;51046;-57
2021/06/22 10:17:07;;;;;;;;;11.00;10.00;;;;;24.63;51.45;100837.66;5009359;28;51118;-58
2021/06/22 10:19:33;;;;;;;;;12.00;10.50;;;;;24.65;51.12;100843.78;5011272;28;51117;-57
2021/06/22 10:21:58;;;;;;;;;9.50;8.00;;;;;24.66;51.04;100848.22;5010872;27;51125;-59
2021/06/22 10:24:24;;;;;;;;;10.00;8.75;;;;;24.68;51.12;100845.19;5013831;28;51101;-59
2021/06/22 10:26:50;;;;;;;;;12.75;9.75;;;;;24.68;50.99;100857.13;4997227;27;51244;-59
2021/06/22 10:29:17;;;;;;;;;12.75;9.00;;;;;24.70;51.13;100866.03;4998583;28;51298;-57
2021/06/22 10:31:43;;;;;;;;;11.25;11.25;;;;;24.73;50.95;100864.69;5023321;28;51083;-58
2021/06/22 10:34:08;;;;;;;;;11.25;9.50;;;;;24.74;51.42;100872.75;5017045;28;50993;-58
2021/06/22 10:36:35;;;;;;;;;13.00;11.50;;;;;24.74;51.09;100878.28;5010376;28;61863;-59
2021/06/22 10:39:09;;;;;;;;;11.75;10.75;;;;;24.75;50.72;100884.66;5012285;27;51205;-59
2021/06/22 10:41:37;;;;;;;;;19.50;16.50;;;;;24.74;50.69;100889.38;4996195;28;51227;-59
2021/06/22 10:44:09;;;;;;;;;15.25;12.50;;;;;24.70;50.74;100893.75;5009984;27;50962;-59
2021/06/22 10:46:35;;;;;;;;;16.00;13.50;;;;;24.65;50.46;100901.09;5011407;27;51109;-60
2021/06/22 10:49:19;;;;;;;;;16.00;15.00;;;;;24.63;50.98;100906.91;5044226;27;51122;-60
2021/06/22 10:51:46;;;;;;;;;15.75;14.50;;;;;24.60;51.20;100912.09;5006640;28;52944;-60
2021/06/22 10:54:14;;;;;;;;;20.25;16.00;;;;;24.59;51.31;100916.78;5007391;27;52552;-60
2021/06/22 10:56:42;;;;;;;;;15.50;13.00;;;;;24.58;51.68;100922.56;4995891;28;51356;-60
2021/06/22 10:59:19;;;;;;;;;11.25;9.75;;;;;24.57;51.81;100926.44;5012768;28;51342;-60
2021/06/22 11:01:54;;;;;;;;;12.25;10.00;;;;;24.53;51.44;100930.78;5011784;27;51188;-60
2021/06/22 11:04:20;;;;;;;;;10.75;10.25;;;;;24.50;51.42;100940.44;5028013;28;51486;-57
2021/06/22 11:07:05;;;;;;;;;9.75;9.00;;;;;24.48;51.34;100948.13;5027704;28;51124;-59
2021/06/22 11:09:31;;;;;;;;;11.00;9.50;;;;;24.44;51.78;100950.56;5022243;27;53274;-58
2021/06/22 11:12:18;;;;;;;;;10.75;8.50;;;;;24.42;51.89;100963.81;5013043;28;51947;-59
2021/06/22 11:14:59;;;;;;;;;7.50;7.50;;;;;24.38;52.24;100968.13;5018109;28;51356;-54
2021/06/22 11:17:43;;;;;;;;;6.50;6.50;;;;;24.37;52.24;100960.94;5025846;28;51361;-55